Time;durP1;ratioP1;P1;durP2;ratioP2;P2;SDS_P1;SDS_P2;PMS_P1;PMS_P2;Temp;Humidity;BMP_temperature;BMP_pressure;BME280_temperature;BME280_humidity;BME280_pressure;Samples;Min_cycle;Max_cycle;Signal;HPM_P1;HPM_P2
2023/01/17 00:01:12;;;;;;;431.03;187.57;;;;;;;;;;4899935;28;20588;-70
2023/01/17 00:11:55;;;;;;;477.30;221.17;;;;;;;;;;4909579;28;20215;-70
2023/01/17 00:14:21;;;;;;;488.97;234.57;;;;;;;;;;4902288;28;20386;-70
2023/01/17 00:16:47;;;;;;;457.50;219.73;;;;;;;;;;4901041;28;20216;-70
2023/01/17 01:34:04;;;;;;;389.97;192.17;;;;;;;;;;4897946;28;20305;-69
2023/01/17 01:36:33;;;;;;;430.77;206.40;;;;;;;;;;4898469;28;20219;-69
2023/01/17 01:39:02;;;;;;;414.73;198.07;;;;;;;;;;4909786;28;20223;-69
2023/01/17 01:41:30;;;;;;;400.97;191.60;;;;;;;;;;4914119;28;20276;-69
2023/01/17 01:43:56;;;;;;;339.67;162.87;;;;;;;;;;4914919;28;20280;-69
2023/01/17 01:46:35;;;;;;;332.67;164.97;;;;;;;;;;4906478;28;20210;-69
2023/01/17 01:49:04;;;;;;;420.13;200.07;;;;;;;;;;4902312;28;20307;-69
2023/01/17 01:51:40;;;;;;;450.40;232.53;;;;;;;;;;4900287;28;20688;-69
2023/01/17 01:54:09;;;;;;;366.17;170.27;;;;;;;;;;4904160;28;20327;-69
2023/01/17 01:56:35;;;;;;;383.07;179.57;;;;;;;;;;4913925;28;20289;-69
2023/01/17 01:59:03;;;;;;;309.77;146.00;;;;;;;;;;4897850;28;20261;-70
2023/01/17 02:01:30;;;;;;;343.40;164.60;;;;;;;;;;4903372;28;20580;-69
2023/01/17 02:03:56;;;;;;;445.27;207.20;;;;;;;;;;4921547;28;20224;-69
2023/01/17 02:06:28;;;;;;;396.57;181.77;;;;;;;;;;4905693;28;20275;-69
2023/01/17 02:08:55;;;;;;;393.43;185.37;;;;;;;;;;4907098;28;20209;-69
2023/01/17 02:11:21;;;;;;;351.90;166.33;;;;;;;;;;4912953;28;20774;-69
2023/01/17 02:13:47;;;;;;;441.77;185.57;;;;;;;;;;4916619;28;21603;-69
2023/01/17 02:16:46;;;;;;;445.40;194.77;;;;;;;;;;4907944;28;20186;-70
2023/01/17 02:19:12;;;;;;;433.63;180.93;;;;;;;;;;4924937;28;20220;-70
2023/01/17 02:21:44;;;;;;;367.10;168.90;;;;;;;;;;4905202;28;20583;-69
2023/01/17 02:24:34;;;;;;;443.50;184.30;;;;;;;;;;4911326;28;20236;-70
2023/01/17 02:27:03;;;;;;;392.67;169.93;;;;;;;;;;4923513;28;20217;-69
2023/01/17 02:29:51;;;;;;;511.47;224.00;;;;;;;;;;4900164;28;20257;-69
2023/01/17 02:32:17;;;;;;;438.13;191.73;;;;;;;;;;4913474;28;20278;-69
2023/01/17 02:34:55;;;;;;;448.30;188.77;;;;;;;;;;4907849;28;20180;-69
2023/01/17 02:37:28;;;;;;;480.30;214.67;;;;;;;;;;4892356;28;21054;-70
2023/01/17 02:40:05;;;;;;;362.67;155.50;;;;;;;;;;4906654;28;20234;-70
2023/01/17 02:42:34;;;;;;;408.93;185.00;;;;;;;;;;4908784;28;20273;-69
2023/01/17 02:45:01;;;;;;;443.03;189.67;;;;;;;;;;4902561;28;20207;-69
2023/01/17 02:47:31;;;;;;;502.17;225.27;;;;;;;;;;4902842;28;20214;-69
2023/01/17 02:50:04;;;;;;;453.97;193.57;;;;;;;;;;4906951;28;20223;-70
2023/01/17 02:52:36;;;;;;;328.60;141.47;;;;;;;;;;4906555;28;20699;-69
2023/01/17 02:55:02;;;;;;;355.10;153.63;;;;;;;;;;4903084;28;20205;-69
2023/01/17 02:57:41;;;;;;;370.03;166.80;;;;;;;;;;4902908;28;20760;-69
2023/01/17 03:00:12;;;;;;;465.43;197.70;;;;;;;;;;4901231;28;20262;-69
2023/01/17 03:02:57;;;;;;;373.87;160.23;;;;;;;;;;4910434;28;20226;-69
2023/01/17 03:05:25;;;;;;;391.90;178.43;;;;;;;;;;4920999;28;20761;-69
2023/01/17 03:07:52;;;;;;;397.63;176.03;;;;;;;;;;4902869;28;20187;-69
2023/01/17 03:10:19;;;;;;;426.73;200.00;;;;;;;;;;4905127;28;20210;-69
2023/01/17 03:12:45;;;;;;;339.20;171.13;;;;;;;;;;4989283;28;21057;-69
2023/01/17 03:15:12;;;;;;;373.30;188.67;;;;;;;;;;4923623;28;20234;-70
2023/01/17 03:17:40;;;;;;;373.27;179.70;;;;;;;;;;4909235;28;20382;-69
2023/01/17 03:20:07;;;;;;;394.87;199.50;;;;;;;;;;4899403;28;20276;-69
2023/01/17 03:22:33;;;;;;;380.57;179.23;;;;;;;;;;4905431;28;20279;-69
2023/01/17 03:24:59;;;;;;;401.23;189.10;;;;;;;;;;4907719;28;20790;-70
2023/01/17 03:27:25;;;;;;;356.83;166.37;;;;;;;;;;4908857;28;20212;-69
2023/01/17 03:29:51;;;;;;;384.83;187.83;;;;;;;;;;4898579;28;20304;-69
2023/01/17 03:32:17;;;;;;;379.83;175.87;;;;;;;;;;4907832;28;20712;-69
2023/01/17 03:34:43;;;;;;;364.73;172.60;;;;;;;;;;4907551;28;20935;-69
2023/01/17 03:37:09;;;;;;;399.30;193.20;;;;;;;;;;4901481;28;20207;-70
2023/01/17 03:39:35;;;;;;;333.73;156.13;;;;;;;;;;4908146;28;20238;-69
2023/01/17 03:42:01;;;;;;;398.37;187.30;;;;;;;;;;4906281;28;20220;-69
2023/01/17 03:44:27;;;;;;;371.00;177.80;;;;;;;;;;4910568;28;20212;-69
2023/01/17 03:46:53;;;;;;;399.40;188.77;;;;;;;;;;4901691;28;20234;-69
2023/01/17 03:49:19;;;;;;;400.20;192.37;;;;;;;;;;4911763;28;20192;-69
2023/01/17 03:51:45;;;;;;;415.00;193.70;;;;;;;;;;4908130;28;20231;-70
2023/01/17 03:54:11;;;;;;;363.73;172.27;;;;;;;;;;4922558;28;20312;-70
2023/01/17 03:56:37;;;;;;;329.30;158.80;;;;;;;;;;4911541;28;20268;-70
2023/01/17 03:59:03;;;;;;;456.47;216.93;;;;;;;;;;4904390;28;20272;-69
2023/01/17 04:01:29;;;;;;;351.77;172.67;;;;;;;;;;4902403;28;20208;-69
2023/01/17 04:03:55;;;;;;;446.20;196.67;;;;;;;;;;4905578;28;20917;-70
2023/01/17 04:06:21;;;;;;;370.23;174.30;;;;;;;;;;4902287;28;20211;-69
2023/01/17 04:08:47;;;;;;;361.50;174.30;;;;;;;;;;4908288;28;20292;-70
2023/01/17 04:11:13;;;;;;;388.77;188.47;;;;;;;;;;4909911;28;20219;-69
2023/01/17 04:13:39;;;;;;;407.17;194.90;;;;;;;;;;4908684;28;20180;-69
2023/01/17 04:16:05;;;;;;;472.70;222.37;;;;;;;;;;4920888;28;20236;-69
2023/01/17 04:18:34;;;;;;;369.53;175.10;;;;;;;;;;4924442;28;20365;-69
2023/01/17 04:21:00;;;;;;;421.40;204.73;;;;;;;;;;4908208;28;20278;-69
2023/01/17 04:23:26;;;;;;;429.33;210.47;;;;;;;;;;4897967;28;20401;-69
2023/01/17 04:25:52;;;;;;;352.43;168.30;;;;;;;;;;4907000;28;20208;-69
2023/01/17 04:28:17;;;;;;;334.90;159.40;;;;;;;;;;4906489;28;20187;-69
2023/01/17 04:30:47;;;;;;;346.40;163.20;;;;;;;;;;4907010;28;20227;-69
2023/01/17 04:33:13;;;;;;;480.40;243.20;;;;;;;;;;4902269;28;20226;-69
2023/01/17 04:35:39;;;;;;;366.53;176.93;;;;;;;;;;4991477;28;20215;-70
2023/01/17 04:38:04;;;;;;;405.57;196.23;;;;;;;;;;4906482;28;20350;-69
2023/01/17 04:40:33;;;;;;;330.77;158.70;;;;;;;;;;4907121;28;20398;-69
2023/01/17 04:42:59;;;;;;;447.00;209.80;;;;;;;;;;4906835;28;20293;-69
2023/01/17 04:45:25;;;;;;;386.93;190.00;;;;;;;;;;4906885;28;20281;-69
2023/01/17 04:47:51;;;;;;;452.10;215.43;;;;;;;;;;4904337;28;20232;-69
2023/01/17 04:50:17;;;;;;;389.07;193.20;;;;;;;;;;4901769;28;20231;-69
2023/01/17 04:52:44;;;;;;;368.87;182.13;;;;;;;;;;4911417;28;20248;-69
2023/01/17 04:55:10;;;;;;;453.40;224.20;;;;;;;;;;4903159;28;20200;-69
2023/01/17 04:57:36;;;;;;;388.00;184.57;;;;;;;;;;4904265;28;20220;-69
2023/01/17 05:00:02;;;;;;;514.53;261.53;;;;;;;;;;4900193;28;20260;-69
2023/01/17 05:02:28;;;;;;;420.97;203.73;;;;;;;;;;4898747;28;20249;-69
2023/01/17 05:04:54;;;;;;;390.60;191.57;;;;;;;;;;4909624;28;20198;-69
2023/01/17 05:07:20;;;;;;;348.47;169.60;;;;;;;;;;4901411;28;20192;-69
2023/01/17 05:09:46;;;;;;;437.83;209.57;;;;;;;;;;4903649;28;20250;-69
2023/01/17 05:12:12;;;;;;;441.67;210.83;;;;;;;;;;4901750;28;20220;-69
2023/01/17 05:14:38;;;;;;;415.30;198.07;;;;;;;;;;4909220;28;20273;-70
2023/01/17 05:17:04;;;;;;;458.83;222.80;;;;;;;;;;4904438;28;20599;-69
2023/01/17 05:19:30;;;;;;;385.00;184.80;;;;;;;;;;4908035;28;20180;-69
2023/01/17 05:22:02;;;;;;;423.40;203.17;;;;;;;;;;4905204;28;20283;-69
2023/01/17 05:24:29;;;;;;;411.13;208.57;;;;;;;;;;4921962;28;20292;-71
2023/01/17 05:27:01;;;;;;;432.43;214.00;;;;;;;;;;4901178;28;20231;-70
2023/01/17 05:29:27;;;;;;;475.80;230.87;;;;;;;;;;4892642;28;20402;-69
2023/01/17 05:31:53;;;;;;;465.27;226.17;;;;;;;;;;4907009;28;20291;-69
2023/01/17 05:34:19;;;;;;;434.90;204.70;;;;;;;;;;4900433;28;20192;-69
2023/01/17 05:36:47;;;;;;;497.03;243.63;;;;;;;;;;4917086;28;20239;-69
2023/01/17 05:39:13;;;;;;;486.63;240.47;;;;;;;;;;4905482;28;20868;-69
2023/01/17 05:41:39;;;;;;;402.80;191.17;;;;;;;;;;4898943;28;20234;-69
2023/01/17 05:44:06;;;;;;;453.03;217.07;;;;;;;;;;4903962;28;20231;-69
2023/01/17 05:46:31;;;;;;;407.00;188.53;;;;;;;;;;4912709;28;20741;-69
2023/01/17 05:48:58;;;;;;;494.63;235.50;;;;;;;;;;4909326;28;20211;-69
2023/01/17 05:51:24;;;;;;;404.33;193.30;;;;;;;;;;4910067;28;20273;-69
2023/01/17 05:53:50;;;;;;;461.57;216.60;;;;;;;;;;4905618;28;20609;-70
2023/01/17 05:56:16;;;;;;;458.13;215.57;;;;;;;;;;4993126;28;20746;-70
2023/01/17 05:58:42;;;;;;;481.27;234.00;;;;;;;;;;4909587;28;20207;-69
2023/01/17 06:01:08;;;;;;;445.10;211.20;;;;;;;;;;4910614;28;20207;-70
2023/01/17 06:03:34;;;;;;;453.97;215.90;;;;;;;;;;4906283;28;20222;-70
2023/01/17 06:06:00;;;;;;;462.73;219.17;;;;;;;;;;4906615;28;20216;-70
2023/01/17 06:08:26;;;;;;;425.40;194.73;;;;;;;;;;4907890;28;20298;-70
2023/01/17 06:10:52;;;;;;;457.70;221.13;;;;;;;;;;4907358;28;20207;-69
2023/01/17 06:13:19;;;;;;;416.40;196.30;;;;;;;;;;4922006;28;20192;-70
2023/01/17 06:15:45;;;;;;;489.33;231.80;;;;;;;;;;4910288;28;20702;-70
2023/01/17 06:18:12;;;;;;;532.23;252.60;;;;;;;;;;4904079;28;20227;-70
2023/01/17 06:20:39;;;;;;;498.50;235.93;;;;;;;;;;4908123;28;20230;-69
2023/01/17 06:23:06;;;;;;;458.20;215.27;;;;;;;;;;4902646;28;20219;-69
2023/01/17 06:25:37;;;;;;;400.90;189.57;;;;;;;;;;4909921;28;20222;-69
2023/01/17 06:28:03;;;;;;;488.43;227.03;;;;;;;;;;4911921;28;20246;-70
2023/01/17 06:30:29;;;;;;;413.67;198.77;;;;;;;;;;4906306;28;20219;-69
2023/01/17 06:32:55;;;;;;;491.90;231.70;;;;;;;;;;4906869;28;20246;-69
2023/01/17 06:35:22;;;;;;;418.53;191.57;;;;;;;;;;4907480;28;21796;-71
2023/01/17 06:37:51;;;;;;;447.07;212.73;;;;;;;;;;4924202;28;20212;-68
2023/01/17 06:40:18;;;;;;;480.80;227.27;;;;;;;;;;4901774;28;20215;-69
2023/01/17 06:42:44;;;;;;;474.70;223.57;;;;;;;;;;4909074;28;20351;-69
2023/01/17 06:45:10;;;;;;;534.57;259.83;;;;;;;;;;4903961;28;20299;-69
2023/01/17 06:47:39;;;;;;;508.33;249.23;;;;;;;;;;4904483;28;20989;-68
2023/01/17 06:50:06;;;;;;;503.80;242.07;;;;;;;;;;4903111;28;20783;-70
2023/01/17 06:52:32;;;;;;;420.23;203.90;;;;;;;;;;4905769;28;20192;-70
2023/01/17 06:54:58;;;;;;;443.90;216.33;;;;;;;;;;4911875;28;20687;-69
2023/01/17 06:57:27;;;;;;;435.43;206.40;;;;;;;;;;4910672;28;20235;-71
2023/01/17 06:59:53;;;;;;;429.13;201.73;;;;;;;;;;4896498;28;20577;-73
2023/01/17 07:02:19;;;;;;;482.80;232.93;;;;;;;;;;4930318;28;20216;-73
2023/01/17 07:04:46;;;;;;;540.07;266.33;;;;;;;;;;4905623;28;20357;-72
2023/01/17 07:07:12;;;;;;;486.30;233.97;;;;;;;;;;4911028;28;20192;-73
2023/01/17 07:09:38;;;;;;;507.67;256.60;;;;;;;;;;4926859;28;20353;-71
2023/01/17 07:12:07;;;;;;;456.00;223.80;;;;;;;;;;4929945;28;20441;-71
2023/01/17 07:14:33;;;;;;;477.20;237.10;;;;;;;;;;4903914;28;20739;-76
2023/01/17 07:16:59;;;;;;;664.00;353.30;;;;;;;;;;4886262;28;21370;-69
2023/01/17 07:19:25;;;;;;;479.70;231.47;;;;;;;;;;4896051;28;21548;-70
2023/01/17 07:21:51;;;;;;;498.83;241.10;;;;;;;;;;4898435;28;20222;-70
2023/01/17 07:24:18;;;;;;;497.83;241.13;;;;;;;;;;4911650;28;20638;-70
2023/01/17 07:26:47;;;;;;;452.20;213.83;;;;;;;;;;4904315;28;20370;-70
2023/01/17 07:29:13;;;;;;;483.87;235.13;;;;;;;;;;4906743;28;20275;-70
2023/01/17 07:31:39;;;;;;;529.67;261.17;;;;;;;;;;4905911;28;20246;-70
2023/01/17 07:34:05;;;;;;;525.67;254.60;;;;;;;;;;4906770;28;20965;-70
2023/01/17 07:36:32;;;;;;;570.23;285.13;;;;;;;;;;4901349;28;20223;-63
2023/01/17 07:38:58;;;;;;;480.83;228.30;;;;;;;;;;4901327;28;20223;-63
2023/01/17 07:41:24;;;;;;;526.27;264.40;;;;;;;;;;4892738;28;20231;-71
2023/01/17 07:43:49;;;;;;;488.97;236.77;;;;;;;;;;4891633;28;20576;-71
2023/01/17 07:46:18;;;;;;;536.73;269.17;;;;;;;;;;4908981;28;20179;-71
2023/01/17 07:48:44;;;;;;;464.70;229.77;;;;;;;;;;4900571;28;20289;-72
2023/01/17 07:51:11;;;;;;;535.13;260.00;;;;;;;;;;4892644;28;20302;-72
2023/01/17 07:53:39;;;;;;;438.80;206.90;;;;;;;;;;4901772;28;20840;-72
2023/01/17 07:56:07;;;;;;;505.77;241.40;;;;;;;;;;4906219;28;20222;-73
2023/01/17 07:58:33;;;;;;;552.77;271.40;;;;;;;;;;4894362;28;20204;-71
2023/01/17 08:01:03;;;;;;;465.37;227.03;;;;;;;;;;4898951;28;20208;-72
2023/01/17 08:03:35;;;;;;;462.40;217.87;;;;;;;;;;4908899;28;20292;-71
2023/01/17 08:06:01;;;;;;;526.03;250.97;;;;;;;;;;4899920;28;20268;-72
2023/01/17 08:08:28;;;;;;;413.27;196.03;;;;;;;;;;4914202;28;20223;-72
2023/01/17 08:10:54;;;;;;;448.40;217.53;;;;;;;;;;4912500;28;20200;-71
2023/01/17 08:13:20;;;;;;;525.23;231.07;;;;;;;;;;4918961;28;20195;-71
2023/01/17 08:15:50;;;;;;;520.63;234.83;;;;;;;;;;4913069;28;20958;-71
2023/01/17 08:18:16;;;;;;;542.07;244.43;;;;;;;;;;4915726;28;20429;-71
2023/01/17 08:20:43;;;;;;;514.87;228.73;;;;;;;;;;4915891;28;20222;-71
2023/01/17 08:23:09;;;;;;;474.67;216.43;;;;;;;;;;4914791;28;20266;-70
2023/01/17 08:25:38;;;;;;;473.40;215.67;;;;;;;;;;4912538;28;20246;-73
2023/01/17 08:28:04;;;;;;;512.67;231.93;;;;;;;;;;4900577;28;20219;-72
2023/01/17 08:30:30;;;;;;;443.73;193.97;;;;;;;;;;4902331;28;20239;-72
2023/01/17 08:32:59;;;;;;;488.17;223.80;;;;;;;;;;4898729;28;21622;-72
2023/01/17 08:35:26;;;;;;;456.20;202.67;;;;;;;;;;4899416;28;20979;-71
2023/01/17 08:37:53;;;;;;;494.13;217.50;;;;;;;;;;4918628;28;20211;-70
2023/01/17 08:40:19;;;;;;;545.70;253.03;;;;;;;;;;4897368;28;20234;-71
2023/01/17 08:42:53;;;;;;;555.33;247.03;;;;;;;;;;4906837;28;20215;-74
2023/01/17 08:45:18;;;;;;;482.60;209.83;;;;;;;;;;4884526;28;20215;-72
2023/01/17 08:47:44;;;;;;;475.07;209.13;;;;;;;;;;4890925;28;20226;-74
2023/01/17 08:50:10;;;;;;;491.50;225.90;;;;;;;;;;4895693;28;20772;-75
2023/01/17 08:52:36;;;;;;;497.27;219.50;;;;;;;;;;4908562;28;20195;-73
2023/01/17 08:55:04;;;;;;;461.27;199.13;;;;;;;;;;4911880;28;20274;-74
2023/01/17 08:57:30;;;;;;;477.47;216.30;;;;;;;;;;4908169;28;20378;-73
2023/01/17 08:59:57;;;;;;;540.33;251.87;;;;;;;;;;4897869;28;20216;-75
2023/01/17 09:02:23;;;;;;;522.63;229.03;;;;;;;;;;4892229;28;20318;-70
2023/01/17 09:04:50;;;;;;;526.83;241.70;;;;;;;;;;4904178;28;20278;-72
2023/01/17 09:07:16;;;;;;;562.50;267.03;;;;;;;;;;4902700;28;20187;-72
2023/01/17 09:09:42;;;;;;;536.60;258.33;;;;;;;;;;4897521;28;20238;-71
2023/01/17 09:12:08;;;;;;;536.03;263.00;;;;;;;;;;4890389;28;20220;-72
2023/01/17 09:14:38;;;;;;;490.83;241.33;;;;;;;;;;4892571;28;20295;-70
2023/01/17 09:17:07;;;;;;;502.17;238.13;;;;;;;;;;4904251;28;20227;-72
2023/01/17 09:19:34;;;;;;;595.63;308.80;;;;;;;;;;4900689;28;21346;-71
2023/01/17 09:22:00;;;;;;;505.87;242.27;;;;;;;;;;4904387;28;20223;-71
2023/01/17 09:24:26;;;;;;;534.00;255.67;;;;;;;;;;4895507;28;20247;-71
2023/01/17 09:26:52;;;;;;;543.87;273.53;;;;;;;;;;4896726;28;20223;-70
2023/01/17 09:29:18;;;;;;;544.70;262.67;;;;;;;;;;4903958;28;20207;-70
2023/01/17 09:31:46;;;;;;;514.93;253.77;;;;;;;;;;4894544;28;20251;-71
2023/01/17 09:34:13;;;;;;;518.77;257.67;;;;;;;;;;4893282;28;20184;-70
2023/01/17 09:36:39;;;;;;;513.07;252.50;;;;;;;;;;4902439;28;20274;-70
2023/01/17 09:39:08;;;;;;;557.87;273.17;;;;;;;;;;4905614;28;20631;-69
2023/01/17 09:41:45;;;;;;;525.43;261.40;;;;;;;;;;4901860;28;20298;-70
2023/01/17 09:44:11;;;;;;;541.13;268.63;;;;;;;;;;4892518;28;20211;-71
2023/01/17 09:46:40;;;;;;;552.93;275.63;;;;;;;;;;4902155;28;20194;-68
2023/01/17 09:49:07;;;;;;;520.63;252.03;;;;;;;;;;4909121;28;20664;-68
2023/01/17 09:51:33;;;;;;;620.83;313.93;;;;;;;;;;4897490;28;20591;-70
2023/01/17 09:54:01;;;;;;;527.33;254.03;;;;;;;;;;4902176;28;20208;-70
2023/01/17 09:56:34;;;;;;;546.77;262.27;;;;;;;;;;4902368;28;20227;-70
2023/01/17 09:59:39;;;;;;;492.70;238.90;;;;;;;;;;4907357;28;20720;-70
2023/01/17 10:02:23;;;;;;;529.70;259.07;;;;;;;;;;4847209;28;20247;-70
2023/01/17 10:05:19;;;;;;;541.77;265.77;;;;;;;;;;4852129;28;20204;-70
2023/01/17 10:07:53;;;;;;;484.43;236.47;;;;;;;;;;4887201;28;20537;-70
2023/01/17 10:10:37;;;;;;;601.20;308.70;;;;;;;;;;4897456;28;20600;-70
2023/01/17 10:13:04;;;;;;;541.30;269.70;;;;;;;;;;4920493;28;20889;-71
2023/01/17 10:15:30;;;;;;;473.10;227.17;;;;;;;;;;4912449;28;20222;-71
2023/01/17 10:18:23;;;;;;;467.13;229.57;;;;;;;;;;4910419;28;20215;-72
2023/01/17 10:20:53;;;;;;;491.23;232.10;;;;;;;;;;4934059;28;20746;-71
2023/01/17 10:23:46;;;;;;;562.83;271.83;;;;;;;;;;4905609;28;20219;-70
2023/01/17 10:26:15;;;;;;;591.87;291.90;;;;;;;;;;4901895;28;20243;-71
2023/01/17 10:28:47;;;;;;;588.20;286.97;;;;;;;;;;4901629;28;20249;-70
2023/01/17 10:31:26;;;;;;;578.13;281.33;;;;;;;;;;4920969;28;20842;-71
2023/01/17 10:33:52;;;;;;;549.50;268.90;;;;;;;;;;4906195;28;20251;-71
2023/01/17 10:36:31;;;;;;;562.87;268.60;;;;;;;;;;4924171;28;20310;-70
2023/01/17 10:39:00;;;;;;;536.87;263.30;;;;;;;;;;4907694;28;20269;-70
2023/01/17 10:41:30;;;;;;;547.60;262.37;;;;;;;;;;4899185;28;20690;-71
2023/01/17 10:44:11;;;;;;;597.93;295.10;;;;;;;;;;4899659;28;20631;-71
2023/01/17 10:46:40;;;;;;;553.13;262.20;;;;;;;;;;4905998;28;20192;-71
2023/01/17 10:49:14;;;;;;;578.67;285.67;;;;;;;;;;4906944;28;20184;-70
2023/01/17 10:52:01;;;;;;;563.80;273.37;;;;;;;;;;4917743;28;20231;-70
2023/01/17 10:54:48;;;;;;;567.47;268.13;;;;;;;;;;4911733;28;20226;-70
2023/01/17 10:57:17;;;;;;;552.67;269.57;;;;;;;;;;4906903;28;20224;-70
2023/01/17 10:59:43;;;;;;;529.50;250.10;;;;;;;;;;4915188;28;20223;-70
2023/01/17 11:02:35;;;;;;;628.93;316.60;;;;;;;;;;4891331;28;20912;-70
2023/01/17 11:05:04;;;;;;;559.07;269.03;;;;;;;;;;4893072;28;20707;-70
2023/01/17 11:07:30;;;;;;;532.53;261.53;;;;;;;;;;4895232;28;20196;-71
2023/01/17 11:09:58;;;;;;;555.73;270.33;;;;;;;;;;4914983;28;20212;-70
2023/01/17 11:12:30;;;;;;;489.90;237.27;;;;;;;;;;4900180;28;20239;-69
2023/01/17 11:14:57;;;;;;;556.20;270.23;;;;;;;;;;4907812;28;20265;-70
2023/01/17 11:17:26;;;;;;;566.13;264.23;;;;;;;;;;4902918;28;20227;-70
2023/01/17 11:19:53;;;;;;;547.87;258.20;;;;;;;;;;4904021;28;20249;-71
2023/01/17 11:22:20;;;;;;;562.07;269.30;;;;;;;;;;4906417;28;20190;-77
2023/01/17 11:24:51;;;;;;;561.03;276.07;;;;;;;;;;4902996;28;20329;-74
2023/01/17 11:27:23;;;;;;;559.60;271.90;;;;;;;;;;4904136;28;20923;-70
2023/01/17 11:30:01;;;;;;;607.57;303.93;;;;;;;;;;4898145;28;20238;-72
2023/01/17 11:32:29;;;;;;;582.83;289.03;;;;;;;;;;4908507;28;20326;-70
2023/01/17 11:35:14;;;;;;;570.57;276.10;;;;;;;;;;4898919;28;20204;-71
2023/01/17 11:37:48;;;;;;;535.83;256.13;;;;;;;;;;4911927;28;20211;-69
2023/01/17 11:40:21;;;;;;;566.67;275.00;;;;;;;;;;4895010;28;20774;-68
2023/01/17 11:43:06;;;;;;;603.23;292.07;;;;;;;;;;4900517;28;20780;-71
2023/01/17 11:45:35;;;;;;;586.07;281.40;;;;;;;;;;4893097;28;20222;-69
2023/01/17 11:48:04;;;;;;;549.10;254.00;;;;;;;;;;4900492;28;20231;-69
2023/01/17 11:50:30;;;;;;;619.77;310.70;;;;;;;;;;4904410;28;20642;-68
2023/01/17 11:53:15;;;;;;;629.83;319.57;;;;;;;;;;4899626;28;20232;-69
2023/01/17 11:55:52;;;;;;;555.33;269.60;;;;;;;;;;4901821;28;20196;-69
2023/01/17 11:58:19;;;;;;;577.57;287.97;;;;;;;;;;4919348;28;20302;-69
2023/01/17 12:00:46;;;;;;;543.03;268.67;;;;;;;;;;4895725;28;20937;-69
2023/01/17 12:03:21;;;;;;;515.77;245.00;;;;;;;;;;4899512;28;20760;-69
2023/01/17 12:06:06;;;;;;;530.23;244.63;;;;;;;;;;4903710;28;20335;-70
2023/01/17 12:08:44;;;;;;;558.37;270.13;;;;;;;;;;4909463;28;20234;-69
2023/01/17 12:11:15;;;;;;;520.00;241.60;;;;;;;;;;4911072;28;20227;-69
2023/01/17 12:14:00;;;;;;;549.80;255.00;;;;;;;;;;4906035;28;20297;-70
2023/01/17 12:16:41;;;;;;;543.00;251.40;;;;;;;;;;4904726;28;20199;-69
2023/01/17 12:19:13;;;;;;;592.57;285.90;;;;;;;;;;4899907;28;20258;-69
2023/01/17 12:21:42;;;;;;;580.57;271.87;;;;;;;;;;4909365;28;20315;-69
2023/01/17 12:24:26;;;;;;;572.00;274.23;;;;;;;;;;4902072;28;20638;-70
2023/01/17 12:26:55;;;;;;;534.93;248.20;;;;;;;;;;4895256;28;20318;-69
2023/01/17 12:29:27;;;;;;;582.87;281.50;;;;;;;;;;4899888;28;20715;-69
2023/01/17 12:31:56;;;;;;;574.83;269.40;;;;;;;;;;4903727;28;20330;-68
2023/01/17 12:34:29;;;;;;;517.23;233.50;;;;;;;;;;4897968;28;20632;-70
2023/01/17 12:37:02;;;;;;;498.73;230.23;;;;;;;;;;4909947;28;20727;-69
2023/01/17 12:39:33;;;;;;;545.07;242.83;;;;;;;;;;4906501;28;20224;-69
2023/01/17 12:42:19;;;;;;;510.57;244.60;;;;;;;;;;4895453;28;20224;-69
2023/01/17 12:44:57;;;;;;;547.03;256.20;;;;;;;;;;4892207;28;20243;-69
2023/01/17 12:47:25;;;;;;;589.10;288.43;;;;;;;;;;4903429;28;20600;-71
2023/01/17 12:49:56;;;;;;;505.20;235.10;;;;;;;;;;4897890;28;20219;-70
2023/01/17 12:52:28;;;;;;;539.60;244.47;;;;;;;;;;4907684;28;20191;-70
2023/01/17 12:55:01;;;;;;;558.90;254.73;;;;;;;;;;4893747;28;20739;-72
2023/01/17 12:57:37;;;;;;;578.33;260.80;;;;;;;;;;4900561;28;20224;-70
2023/01/17 13:00:09;;;;;;;530.90;243.60;;;;;;;;;;4902147;28;20907;-71
2023/01/17 13:02:38;;;;;;;562.40;261.73;;;;;;;;;;4907856;28;20374;-70
2023/01/17 13:05:07;;;;;;;604.63;300.23;;;;;;;;;;4894702;28;20234;-71
2023/01/17 13:07:39;;;;;;;566.63;265.40;;;;;;;;;;4903628;28;20244;-68
2023/01/17 13:10:17;;;;;;;552.13;250.03;;;;;;;;;;4898842;28;20219;-68
2023/01/17 13:12:44;;;;;;;579.10;272.13;;;;;;;;;;4889060;28;20580;-68
2023/01/17 13:15:17;;;;;;;575.87;272.90;;;;;;;;;;4888320;28;20715;-68
2023/01/17 13:17:51;;;;;;;573.70;266.03;;;;;;;;;;4901463;28;20234;-68
2023/01/17 13:20:27;;;;;;;569.50;271.63;;;;;;;;;;4907084;28;20231;-69
2023/01/17 13:22:56;;;;;;;560.23;263.30;;;;;;;;;;4909914;28;20191;-68
2023/01/17 13:25:30;;;;;;;535.13;239.03;;;;;;;;;;4898045;28;20199;-69
2023/01/17 13:28:11;;;;;;;509.20;245.23;;;;;;;;;;4903774;28;20221;-69
2023/01/17 13:30:54;;;;;;;524.93;240.23;;;;;;;;;;4901339;28;20231;-69
2023/01/17 13:33:20;;;;;;;569.43;278.43;;;;;;;;;;4900774;28;22230;-69
2023/01/17 13:35:49;;;;;;;547.70;256.70;;;;;;;;;;4899704;28;20227;-70
2023/01/17 13:38:18;;;;;;;600.30;285.07;;;;;;;;;;4886092;28;20374;-69
2023/01/17 13:40:52;;;;;;;583.20;275.30;;;;;;;;;;4897299;28;20410;-69
2023/01/17 13:43:24;;;;;;;587.20;287.13;;;;;;;;;;4911912;28;20234;-69
2023/01/17 13:45:55;;;;;;;589.10;277.33;;;;;;;;;;4893125;28;20231;-69
2023/01/17 13:48:22;;;;;;;599.13;276.43;;;;;;;;;;4906497;28;21792;-69
2023/01/17 13:50:49;;;;;;;544.13;256.27;;;;;;;;;;4896743;28;21198;-69
2023/01/17 13:53:33;;;;;;;608.70;295.03;;;;;;;;;;4898275;28;20258;-70
2023/01/17 13:55:59;;;;;;;544.27;256.77;;;;;;;;;;4901815;28;20231;-70
2023/01/17 13:58:29;;;;;;;574.57;261.83;;;;;;;;;;4902495;28;21013;-69
2023/01/17 14:00:55;;;;;;;573.53;264.00;;;;;;;;;;4901691;28;20692;-69
2023/01/17 14:03:40;;;;;;;608.37;291.83;;;;;;;;;;4902097;28;20281;-68
2023/01/17 14:06:25;;;;;;;607.23;280.10;;;;;;;;;;4898743;28;20965;-68
2023/01/17 14:08:52;;;;;;;555.23;254.50;;;;;;;;;;4896803;28;20215;-68
2023/01/17 14:11:18;;;;;;;571.63;268.43;;;;;;;;;;4900718;28;20220;-69
2023/01/17 14:13:44;;;;;;;604.43;281.93;;;;;;;;;;4907929;28;20184;-70
2023/01/17 14:16:30;;;;;;;620.60;298.63;;;;;;;;;;4899678;28;20246;-70
2023/01/17 14:18:56;;;;;;;608.83;288.20;;;;;;;;;;4896059;28;20753;-69
2023/01/17 14:21:23;;;;;;;578.17;281.33;;;;;;;;;;4900484;28;20223;-69
2023/01/17 14:23:58;;;;;;;652.37;320.47;;;;;;;;;;4894121;28;20220;-69
2023/01/17 14:26:30;;;;;;;644.03;308.97;;;;;;;;;;4906023;28;20256;-70
2023/01/17 14:28:57;;;;;;;624.03;307.37;;;;;;;;;;4907247;28;20237;-69
2023/01/17 14:31:24;;;;;;;589.30;272.63;;;;;;;;;;4898429;28;21091;-69
2023/01/17 14:33:50;;;;;;;591.33;271.50;;;;;;;;;;4901332;28;20250;-68
2023/01/17 14:36:23;;;;;;;588.50;279.63;;;;;;;;;;4897422;28;20309;-69
2023/01/17 14:38:49;;;;;;;567.67;260.60;;;;;;;;;;4905157;28;20235;-69
2023/01/17 14:41:26;;;;;;;638.73;316.97;;;;;;;;;;4892871;28;20288;-69
2023/01/17 14:43:53;;;;;;;626.37;304.20;;;;;;;;;;4901772;28;20277;-69
2023/01/17 14:46:19;;;;;;;566.60;261.03;;;;;;;;;;4893454;28;20192;-69
2023/01/17 14:48:45;;;;;;;626.87;328.27;;;;;;;;;;4898399;28;20229;-70
2023/01/17 14:51:18;;;;;;;594.60;275.70;;;;;;;;;;4900682;28;20234;-69
2023/01/17 14:53:55;;;;;;;562.67;259.57;;;;;;;;;;4910807;28;20294;-72
2023/01/17 14:56:21;;;;;;;552.43;248.53;;;;;;;;;;4910989;28;20247;-70
2023/01/17 14:58:47;;;;;;;621.93;301.00;;;;;;;;;;4903830;28;20319;-70
2023/01/17 15:01:19;;;;;;;554.90;264.23;;;;;;;;;;4907685;28;20243;-69
2023/01/17 15:03:50;;;;;;;571.97;269.73;;;;;;;;;;4905409;28;20227;-70
2023/01/17 15:06:21;;;;;;;590.33;299.17;;;;;;;;;;4901739;28;20227;-68
2023/01/17 15:08:47;;;;;;;559.10;251.77;;;;;;;;;;4906759;28;20213;-69
2023/01/17 15:11:18;;;;;;;605.17;290.00;;;;;;;;;;4899496;28;20305;-68
2023/01/17 15:13:46;;;;;;;576.00;262.37;;;;;;;;;;4907400;28;20237;-70
2023/01/17 15:16:20;;;;;;;534.27;244.43;;;;;;;;;;4901500;28;20188;-70
2023/01/17 15:18:46;;;;;;;541.37;243.57;;;;;;;;;;4916334;28;20358;-70
2023/01/17 15:21:16;;;;;;;501.57;232.10;;;;;;;;;;4908226;28;20224;-69
2023/01/17 15:23:49;;;;;;;567.43;276.30;;;;;;;;;;4905082;28;20234;-69
2023/01/17 15:26:17;;;;;;;583.90;284.60;;;;;;;;;;4906362;28;20246;-70
2023/01/17 15:28:46;;;;;;;538.40;256.43;;;;;;;;;;4909457;28;20211;-69